Time;durP1;ratioP1;P1;durP2;ratioP2;P2;SDS_P1;SDS_P2;PMS_P1;PMS_P2;Temp;Humidity;BMP_temperature;BMP_pressure;BME280_temperature;BME280_humidity;BME280_pressure;Samples;Min_cycle;Max_cycle;Signal;HPM_P1;HPM_P2
2021/08/17 00:01:40;;;;;;;0.40;0.30;;;14.30;99.90;;;;;;5055809;28;20193;-66
2021/08/17 00:04:06;;;;;;;0.60;0.53;;;14.30;99.90;;;;;;5055556;28;20523;-66
2021/08/17 00:06:31;;;;;;;1.13;0.57;;;14.40;99.90;;;;;;5055686;28;20177;-66
2021/08/17 00:08:57;;;;;;;0.83;0.50;;;14.30;99.90;;;;;;5055501;28;20172;-68
2021/08/17 00:11:22;;;;;;;1.20;1.07;;;14.50;99.90;;;;;;5055462;28;20272;-67
2021/08/17 00:13:48;;;;;;;0.30;0.20;;;14.50;99.90;;;;;;5055482;28;20185;-66
2021/08/17 00:16:15;;;;;;;1.17;0.20;;;14.40;99.90;;;;;;5055372;28;20177;-67
2021/08/17 00:18:41;;;;;;;1.35;1.13;;;14.40;99.90;;;;;;5054057;28;20181;-68
2021/08/17 00:21:06;;;;;;;0.30;0.20;;;14.30;99.90;;;;;;5055258;28;20191;-68
2021/08/17 00:23:32;;;;;;;2.10;0.97;;;14.30;99.90;;;;;;5055268;28;20201;-68
2021/08/17 00:25:57;;;;;;;1.43;1.03;;;14.30;99.90;;;;;;5055275;28;20181;-68
2021/08/17 00:28:23;;;;;;;1.63;0.70;;;14.20;99.90;;;;;;5053930;28;20203;-66
2021/08/17 00:30:48;;;;;;;0.50;0.40;;;14.20;99.90;;;;;;5055118;28;20204;-66
2021/08/17 00:33:14;;;;;;;3.70;0.70;;;14.20;99.90;;;;;;5055144;28;20230;-66
2021/08/17 00:35:39;;;;;;;0.40;0.20;;;14.30;99.90;;;;;;5054990;28;20208;-66
2021/08/17 00:38:06;;;;;;;0.30;0.20;;;14.30;99.90;;;;;;5053917;28;20223;-66
2021/08/17 00:40:34;;;;;;;1.05;0.95;;;14.30;99.90;;;;;;5055281;28;20669;-66
2021/08/17 00:43:00;;;;;;;0.75;0.30;;;14.30;99.90;;;;;;5054814;28;20208;-66
2021/08/17 00:45:27;;;;;;;0.80;0.80;;;14.20;99.90;;;;;;5054833;28;20181;-67
2021/08/17 00:47:57;;;;;;;0.40;0.20;;;14.30;99.90;;;;;;5053672;28;20485;-65
2021/08/17 00:50:27;;;;;;;0.30;0.20;;;14.30;99.90;;;;;;5054653;28;20258;-65
2021/08/17 00:52:54;;;;;;;3.60;0.73;;;14.30;99.90;;;;;;5053775;28;20195;-64
2021/08/17 00:55:21;;;;;;;0.50;0.50;;;14.30;99.90;;;;;;5054410;28;20318;-65
2021/08/17 00:57:47;;;;;;;4.47;0.75;;;14.30;99.90;;;;;;5054453;28;20212;-66
2021/08/17 01:00:13;;;;;;;1.80;1.70;;;14.20;99.90;;;;;;5054392;28;20641;-65
2021/08/17 01:02:42;;;;;;;1.65;0.63;;;14.30;99.90;;;;;;5054908;28;20218;-65
2021/08/17 01:05:10;;;;;;;1.25;0.60;;;14.30;99.90;;;;;;5053605;28;20183;-65
2021/08/17 01:07:36;;;;;;;2.42;0.43;;;14.30;99.90;;;;;;5054344;28;20487;-65
2021/08/17 01:10:04;;;;;;;2.72;0.43;;;14.30;99.90;;;;;;5053575;28;20192;-66
2021/08/17 01:12:30;;;;;;;0.30;0.20;;;14.30;99.90;;;;;;5054446;28;20580;-66
2021/08/17 01:14:55;;;;;;;0.67;0.30;;;14.40;99.90;;;;;;5054402;28;20215;-65
2021/08/17 01:17:21;;;;;;;0.60;0.47;;;14.40;99.90;;;;;;5054301;28;20486;-65
2021/08/17 01:19:48;;;;;;;0.75;0.73;;;14.40;99.90;;;;;;5054045;28;20494;-65
2021/08/17 01:22:14;;;;;;;0.30;0.20;;;14.40;99.90;;;;;;5054036;28;20205;-66
2021/08/17 01:24:40;;;;;;;0.30;0.20;;;14.40;99.90;;;;;;5054104;28;20250;-66
2021/08/17 01:27:06;;;;;;;0.30;0.20;;;14.30;99.90;;;;;;5053937;28;20462;-65
2021/08/17 01:29:31;;;;;;;0.30;0.20;;;14.30;99.90;;;;;;5053993;28;20615;-65
2021/08/17 01:31:57;;;;;;;2.03;0.87;;;14.40;99.90;;;;;;5054111;28;20180;-65
2021/08/17 01:34:23;;;;;;;0.37;0.20;;;14.40;99.90;;;;;;5053966;28;20207;-65
2021/08/17 01:36:49;;;;;;;0.40;0.20;;;14.40;99.90;;;;;;5053988;28;20184;-66
2021/08/17 01:39:15;;;;;;;0.47;0.40;;;14.50;99.90;;;;;;5054209;28;20523;-66
2021/08/17 01:41:41;;;;;;;0.50;0.30;;;14.50;99.90;;;;;;5054142;28;20173;-66
2021/08/17 01:44:10;;;;;;;0.33;0.20;;;14.60;99.90;;;;;;5053091;28;20195;-66
2021/08/17 01:46:37;;;;;;;0.40;0.35;;;14.60;99.90;;;;;;5054489;28;20165;-66
2021/08/17 01:49:03;;;;;;;0.30;0.20;;;14.50;99.90;;;;;;5054149;28;20535;-66
2021/08/17 01:51:28;;;;;;;0.30;0.20;;;14.50;99.90;;;;;;5054440;28;20173;-66
2021/08/17 01:53:54;;;;;;;1.67;0.63;;;14.40;99.90;;;;;;5054316;28;20680;-67
2021/08/17 01:56:20;;;;;;;1.03;0.50;;;14.50;99.90;;;;;;5054256;28;20177;-67
2021/08/17 01:58:45;;;;;;;0.33;0.20;;;14.40;99.90;;;;;;5054333;28;20208;-67
2021/08/17 02:01:12;;;;;;;0.40;0.20;;;14.40;99.90;;;;;;5053518;28;20426;-67
2021/08/17 02:03:38;;;;;;;0.40;0.32;;;14.40;99.90;;;;;;5053551;28;20209;-67
2021/08/17 02:06:04;;;;;;;0.40;0.20;;;14.50;99.90;;;;;;5053572;28;20227;-67
2021/08/17 02:08:30;;;;;;;0.70;0.50;;;14.40;99.90;;;;;;5053456;28;20493;-67
2021/08/17 02:10:56;;;;;;;0.50;0.20;;;14.50;99.90;;;;;;5052531;28;20544;-67
2021/08/17 02:13:23;;;;;;;0.40;0.20;;;14.60;99.90;;;;;;5053653;28;20418;-67
2021/08/17 02:15:50;;;;;;;0.30;0.20;;;14.60;99.90;;;;;;5053558;28;20177;-67
2021/08/17 02:18:16;;;;;;;0.40;0.20;;;14.50;99.90;;;;;;5054326;28;20184;-67
2021/08/17 02:20:42;;;;;;;0.75;0.50;;;14.30;99.90;;;;;;5060220;28;20186;-67
2021/08/17 02:23:07;;;;;;;0.40;0.20;;;14.30;99.90;;;;;;5059005;28;20676;-67
2021/08/17 02:25:34;;;;;;;0.30;0.20;;;14.20;99.90;;;;;;5059212;28;20430;-67
2021/08/17 02:27:59;;;;;;;0.40;0.35;;;14.20;99.90;;;;;;5059925;28;20176;-67
2021/08/17 02:30:25;;;;;;;0.40;0.40;;;14.20;99.90;;;;;;5059804;28;20529;-67
2021/08/17 02:32:51;;;;;;;1.90;0.40;;;14.20;99.90;;;;;;5058972;28;20714;-67
2021/08/17 02:35:16;;;;;;;0.30;0.20;;;14.30;99.90;;;;;;5060230;28;20182;-67
2021/08/17 02:37:42;;;;;;;0.50;0.37;;;14.20;99.90;;;;;;5060160;28;20430;-67
2021/08/17 02:40:08;;;;;;;0.40;0.40;;;14.20;99.90;;;;;;5059913;28;20570;-67
2021/08/17 02:42:34;;;;;;;0.30;0.20;;;14.20;99.90;;;;;;5058846;28;20692;-67
2021/08/17 02:45:00;;;;;;;0.40;0.30;;;14.20;99.90;;;;;;5059999;28;20173;-67
2021/08/17 02:47:26;;;;;;;1.30;0.85;;;14.30;99.90;;;;;;5058911;28;20187;-67
2021/08/17 02:49:52;;;;;;;0.63;0.30;;;14.20;99.90;;;;;;5059793;28;20173;-67
2021/08/17 02:52:19;;;;;;;0.30;0.20;;;14.30;99.90;;;;;;5059928;28;20510;-67
2021/08/17 02:54:44;;;;;;;0.30;0.20;;;14.30;99.90;;;;;;5059752;28;20187;-67
2021/08/17 02:57:10;;;;;;;0.30;0.20;;;14.30;99.90;;;;;;5058939;28;20279;-67
2021/08/17 02:59:36;;;;;;;5.23;0.97;;;14.40;99.90;;;;;;5059711;28;20173;-67
2021/08/17 03:02:03;;;;;;;3.42;1.77;;;14.40;99.90;;;;;;5058628;28;20208;-67
2021/08/17 03:04:29;;;;;;;0.30;0.20;;;14.50;99.90;;;;;;5059951;28;20235;-68
2021/08/17 03:06:56;;;;;;;0.30;0.20;;;14.60;99.90;;;;;;5059884;28;20291;-68
2021/08/17 03:09:22;;;;;;;0.30;0.20;;;14.60;99.90;;;;;;5059649;28;20255;-68
2021/08/17 03:11:47;;;;;;;0.40;0.32;;;14.60;99.90;;;;;;5058782;28;20522;-68
2021/08/17 03:14:13;;;;;;;0.30;0.20;;;14.50;99.90;;;;;;5059629;28;20259;-68
2021/08/17 03:16:39;;;;;;;0.40;0.20;;;14.60;99.90;;;;;;5059624;28;20212;-68
2021/08/17 03:19:05;;;;;;;0.30;0.20;;;14.60;99.90;;;;;;5058410;28;20942;-68
2021/08/17 03:21:31;;;;;;;0.40;0.20;;;14.60;99.90;;;;;;5059442;28;20181;-68
2021/08/17 03:23:56;;;;;;;0.40;0.20;;;14.60;99.90;;;;;;5059346;28;20954;-68
2021/08/17 03:26:22;;;;;;;0.40;0.20;;;14.60;99.90;;;;;;5059309;28;20168;-68
2021/08/17 03:28:47;;;;;;;1.60;0.30;;;14.60;99.90;;;;;;5059180;28;20609;-68
2021/08/17 03:31:13;;;;;;;0.60;0.40;;;14.50;99.90;;;;;;5055539;28;20234;-68
2021/08/17 03:33:38;;;;;;;2.87;0.67;;;14.40;99.90;;;;;;5056208;28;20234;-68
2021/08/17 03:36:04;;;;;;;0.30;0.20;;;14.40;99.90;;;;;;5056298;28;20189;-68
2021/08/17 03:38:31;;;;;;;0.50;0.20;;;14.50;99.90;;;;;;5055882;28;20358;-68
2021/08/17 03:40:57;;;;;;;0.40;0.28;;;14.50;99.90;;;;;;5055919;28;20442;-68
2021/08/17 03:43:24;;;;;;;1.13;0.50;;;14.50;99.90;;;;;;5054933;28;20208;-68
2021/08/17 03:45:50;;;;;;;3.15;2.15;;;14.50;99.90;;;;;;5056014;28;20431;-68
2021/08/17 03:48:16;;;;;;;1.27;1.17;;;14.50;99.90;;;;;;5054772;28;20181;-68
2021/08/17 03:50:41;;;;;;;4.20;0.70;;;14.40;99.90;;;;;;5055883;28;20423;-68
2021/08/17 03:53:07;;;;;;;0.30;0.20;;;14.50;99.90;;;;;;5055808;28;20181;-68
2021/08/17 03:55:33;;;;;;;0.80;0.80;;;14.50;99.90;;;;;;5056050;28;20185;-68
2021/08/17 03:57:58;;;;;;;0.33;0.20;;;14.50;99.90;;;;;;5055634;28;20227;-68
2021/08/17 04:00:26;;;;;;;0.63;0.30;;;14.60;99.90;;;;;;5054474;28;20292;-68
2021/08/17 04:02:52;;;;;;;0.30;0.20;;;14.60;99.90;;;;;;5055594;28;20205;-68
2021/08/17 04:05:18;;;;;;;0.40;0.30;;;14.60;99.90;;;;;;5054626;28;20180;-68
2021/08/17 04:07:43;;;;;;;0.40;0.30;;;14.60;99.90;;;;;;5055525;28;20185;-68
2021/08/17 04:10:10;;;;;;;0.30;0.20;;;14.70;99.90;;;;;;5055649;28;20813;-68
2021/08/17 04:12:36;;;;;;;1.65;0.70;;;14.70;99.90;;;;;;5054551;28;20189;-68
2021/08/17 04:15:03;;;;;;;0.50;0.40;;;14.70;99.90;;;;;;5055555;28;20179;-68
2021/08/17 04:17:28;;;;;;;0.40;0.20;;;14.60;99.90;;;;;;5054379;28;20435;-68
2021/08/17 04:19:54;;;;;;;0.73;0.30;;;14.70;99.90;;;;;;5055337;28;20185;-68
2021/08/17 04:22:20;;;;;;;0.30;0.20;;;14.60;99.90;;;;;;5054388;28;20306;-68
2021/08/17 04:24:46;;;;;;;16.13;2.50;;;14.60;99.90;;;;;;5055403;28;20641;-68
2021/08/17 04:27:12;;;;;;;0.30;0.20;;;14.60;99.90;;;;;;5054343;28;20189;-68
2021/08/17 04:29:38;;;;;;;0.30;0.20;;;14.60;99.90;;;;;;5055624;28;20546;-68
2021/08/17 04:32:05;;;;;;;2.03;1.70;;;14.50;99.90;;;;;;5055248;28;20180;-68
2021/08/17 04:34:30;;;;;;;0.30;0.20;;;14.60;99.90;;;;;;5055109;28;20837;-68
2021/08/17 04:36:56;;;;;;;0.40;0.20;;;14.60;99.90;;;;;;5054078;28;20263;-68
2021/08/17 04:39:22;;;;;;;0.50;0.30;;;14.70;99.90;;;;;;5054991;28;20268;-68
2021/08/17 04:41:47;;;;;;;0.33;0.20;;;14.70;99.90;;;;;;5053710;28;20181;-68
2021/08/17 04:44:13;;;;;;;0.40;0.30;;;14.60;99.90;;;;;;5053968;28;20208;-68
2021/08/17 04:46:38;;;;;;;0.30;0.17;;;14.70;99.90;;;;;;5054971;28;20720;-68
2021/08/17 04:49:06;;;;;;;0.40;0.30;;;14.60;99.90;;;;;;5054850;28;20497;-68
2021/08/17 04:51:31;;;;;;;0.30;0.10;;;14.60;99.90;;;;;;5055088;28;20180;-68
2021/08/17 04:53:57;;;;;;;0.30;0.20;;;14.70;99.90;;;;;;5054836;28;20181;-68
2021/08/17 04:56:22;;;;;;;0.40;0.30;;;14.70;99.90;;;;;;5054901;28;20177;-68
2021/08/17 04:58:48;;;;;;;0.47;0.30;;;14.70;99.90;;;;;;5053382;28;20254;-68
2021/08/17 05:01:13;;;;;;;1.17;0.60;;;14.70;99.90;;;;;;5053790;28;20185;-68
2021/08/17 05:03:39;;;;;;;1.73;0.93;;;14.70;99.90;;;;;;5054524;28;20213;-68
2021/08/17 05:06:04;;;;;;;0.50;0.40;;;14.80;99.90;;;;;;5053603;28;20338;-68
2021/08/17 05:08:30;;;;;;;0.63;0.60;;;14.80;99.90;;;;;;5053386;28;20275;-68
2021/08/17 05:10:55;;;;;;;0.30;0.20;;;14.80;99.90;;;;;;5054441;28;20189;-68
2021/08/17 05:13:21;;;;;;;0.30;0.20;;;14.90;99.90;;;;;;5053487;28;20184;-68
2021/08/17 05:15:47;;;;;;;0.40;0.20;;;14.90;99.90;;;;;;5054395;28;20185;-68
2021/08/17 05:18:12;;;;;;;0.80;0.40;;;14.90;99.90;;;;;;5052967;28;20184;-68
2021/08/17 05:20:38;;;;;;;0.60;0.50;;;14.90;99.90;;;;;;5054379;28;20590;-68
2021/08/17 05:23:03;;;;;;;0.40;0.20;;;14.90;99.90;;;;;;5054101;28;20220;-68
2021/08/17 05:25:29;;;;;;;0.73;0.63;;;15.00;99.90;;;;;;5054481;28;20192;-68
2021/08/17 05:27:55;;;;;;;0.57;0.47;;;15.00;99.90;;;;;;5053953;28;20610;-68
2021/08/17 05:30:21;;;;;;;0.50;0.37;;;15.00;99.90;;;;;;5054082;28;20250;-68
2021/08/17 05:32:47;;;;;;;0.60;0.50;;;14.90;99.90;;;;;;5052977;28;20185;-68
2021/08/17 05:35:13;;;;;;;0.50;0.40;;;14.90;99.90;;;;;;5052870;28;20478;-68
2021/08/17 05:37:38;;;;;;;0.40;0.30;;;15.00;99.90;;;;;;5053633;28;20311;-68
2021/08/17 05:40:06;;;;;;;0.30;0.20;;;15.10;99.90;;;;;;5053689;28;20192;-68
2021/08/17 05:42:31;;;;;;;0.30;0.20;;;15.20;99.90;;;;;;5052691;28;20204;-68
2021/08/17 05:44:57;;;;;;;0.40;0.30;;;15.20;99.90;;;;;;5052324;28;20188;-68
2021/08/17 05:47:23;;;;;;;0.40;0.20;;;15.20;99.90;;;;;;5053457;28;20254;-68
2021/08/17 05:49:49;;;;;;;0.63;0.40;;;15.20;99.90;;;;;;5053609;28;20172;-68
2021/08/17 05:52:15;;;;;;;0.90;0.83;;;15.20;99.90;;;;;;5053585;28;20435;-68
2021/08/17 05:54:41;;;;;;;0.30;0.20;;;15.20;99.90;;;;;;5053178;28;20391;-68
2021/08/17 05:57:06;;;;;;;0.97;0.87;;;15.10;99.90;;;;;;5053438;28;20176;-68
2021/08/17 05:59:32;;;;;;;5.30;1.40;;;15.20;99.90;;;;;;5053339;28;20419;-68
2021/08/17 06:02:00;;;;;;;3.83;1.20;;;15.50;99.90;;;;;;5053539;28;20489;-68
2021/08/17 06:04:26;;;;;;;0.40;0.20;;;15.60;99.90;;;;;;5053792;28;20908;-67
2021/08/17 06:06:52;;;;;;;0.40;0.20;;;15.90;99.90;;;;;;5052601;28;20667;-67
2021/08/17 06:09:21;;;;;;;0.40;0.33;;;17.30;99.90;;;;;;5053514;28;20256;-67
2021/08/17 06:11:54;;;;;;;0.40;0.37;;;17.70;99.90;;;;;;5052644;28;20691;-67
2021/08/17 06:14:19;;;;;;;1.03;1.03;;;18.00;99.90;;;;;;5052468;28;20438;-68
2021/08/17 06:16:45;;;;;;;0.77;0.73;;;18.00;99.90;;;;;;5053930;28;20833;-68
2021/08/17 06:19:11;;;;;;;3.33;3.03;;;17.80;99.90;;;;;;5053714;28;20252;-68
2021/08/17 06:21:37;;;;;;;6.70;1.07;;;17.80;99.90;;;;;;5053839;28;20192;-68
2021/08/17 06:24:04;;;;;;;0.40;0.20;;;17.40;99.90;;;;;;5053890;28;20216;-68
2021/08/17 06:26:30;;;;;;;0.90;0.57;;;16.80;99.90;;;;;;5053419;28;20433;-69
2021/08/17 06:28:55;;;;;;;0.40;0.20;;;16.70;99.90;;;;;;5053395;28;20427;-69
2021/08/17 06:31:22;;;;;;;0.77;0.33;;;16.70;99.90;;;;;;5053771;28;20176;-69
2021/08/17 06:33:49;;;;;;;0.93;0.60;;;16.50;99.90;;;;;;5053602;28;20427;-70
2021/08/17 06:36:15;;;;;;;0.40;0.20;;;16.30;99.90;;;;;;5052231;28;20793;-70
2021/08/17 06:38:42;;;;;;;0.40;0.20;;;16.20;99.90;;;;;;5053190;28;20427;-72
2021/08/17 06:41:08;;;;;;;0.57;0.47;;;16.10;99.90;;;;;;5053383;28;20238;-70
2021/08/17 06:43:33;;;;;;;0.40;0.20;;;15.80;99.90;;;;;;5053771;28;20197;-69
2021/08/17 06:45:59;;;;;;;0.80;0.20;;;15.50;99.90;;;;;;5053748;28;20734;-67
2021/08/17 06:48:25;;;;;;;3.07;1.20;;;15.40;99.90;;;;;;5053086;28;20180;-68
2021/08/17 06:50:50;;;;;;;0.40;0.20;;;15.40;99.90;;;;;;5053303;28;20173;-65
2021/08/17 06:53:16;;;;;;;0.60;0.50;;;15.30;99.90;;;;;;5052232;28;20181;-65
2021/08/17 06:55:43;;;;;;;0.40;0.20;;;15.10;99.90;;;;;;5052972;28;20188;-65
2021/08/17 06:58:12;;;;;;;0.40;0.20;;;15.10;99.90;;;;;;5052936;28;20196;-65
2021/08/17 07:00:37;;;;;;;0.85;0.75;;;15.10;99.90;;;;;;5035079;28;20193;-65
2021/08/17 07:03:06;;;;;;;0.30;0.20;;;14.90;99.90;;;;;;5033491;28;20601;-65
2021/08/17 07:05:35;;;;;;;0.30;0.20;;;14.90;99.90;;;;;;5035115;28;20517;-65
2021/08/17 07:08:02;;;;;;;3.20;0.68;;;14.90;99.90;;;;;;5036617;28;20385;-65
2021/08/17 07:10:28;;;;;;;0.35;0.20;;;15.00;99.90;;;;;;5036078;28;20180;-65
2021/08/17 07:12:53;;;;;;;0.30;0.20;;;15.10;99.90;;;;;;5036743;28;20515;-65
2021/08/17 07:15:19;;;;;;;0.40;0.20;;;15.30;99.90;;;;;;5036940;28;20424;-65
2021/08/17 07:17:44;;;;;;;0.50;0.30;;;15.00;99.90;;;;;;5037036;28;20256;-65
2021/08/17 07:20:10;;;;;;;1.90;1.80;;;15.00;99.90;;;;;;5037075;28;20186;-65
2021/08/17 07:22:36;;;;;;;0.30;0.20;;;14.90;99.90;;;;;;5036997;28;20259;-66
2021/08/17 07:25:02;;;;;;;0.37;0.27;;;15.10;99.90;;;;;;5036845;28;20185;-66
2021/08/17 07:27:27;;;;;;;0.40;0.30;;;15.20;99.90;;;;;;5036992;28;20174;-65
2021/08/17 07:29:53;;;;;;;0.30;0.20;;;15.20;99.90;;;;;;5036339;28;20173;-65
2021/08/17 07:32:18;;;;;;;0.40;0.20;;;15.10;99.90;;;;;;5036317;28;20224;-65
2021/08/17 07:34:44;;;;;;;0.47;0.27;;;15.20;99.90;;;;;;5036380;28;20182;-65
2021/08/17 07:37:09;;;;;;;1.37;0.60;;;15.10;99.90;;;;;;5036193;28;20186;-65
2021/08/17 07:39:35;;;;;;;0.40;0.30;;;15.10;99.90;;;;;;5036269;28;20184;-65
2021/08/17 07:42:01;;;;;;;1.03;0.90;;;15.30;99.90;;;;;;5035157;28;20190;-66
2021/08/17 07:44:27;;;;;;;0.40;0.20;;;15.50;99.90;;;;;;5035928;28;20182;-66
2021/08/17 07:46:53;;;;;;;0.40;0.20;;;15.70;99.90;;;;;;5036012;28;20174;-66
2021/08/17 07:49:19;;;;;;;0.40;0.20;;;15.80;99.90;;;;;;5035904;28;20185;-66
2021/08/17 07:51:44;;;;;;;0.40;0.20;;;15.80;99.90;;;;;;5036084;28;20618;-66
2021/08/17 07:54:10;;;;;;;0.70;0.63;;;15.90;99.90;;;;;;5035896;28;20231;-66
2021/08/17 07:56:35;;;;;;;0.60;0.50;;;16.00;99.90;;;;;;5034559;28;20212;-65
2021/08/17 07:59:01;;;;;;;0.50;0.30;;;16.00;99.90;;;;;;5035657;28;20197;-65
2021/08/17 08:01:27;;;;;;;0.60;0.47;;;15.90;99.90;;;;;;5035831;28;20241;-65
2021/08/17 08:03:52;;;;;;;0.50;0.47;;;15.90;99.90;;;;;;5036008;28;20209;-65
2021/08/17 08:06:18;;;;;;;0.47;0.30;;;15.80;99.90;;;;;;5035699;28;20443;-67
2021/08/17 08:08:44;;;;;;;0.70;0.50;;;16.10;99.90;;;;;;5037266;28;20244;-65
2021/08/17 08:11:09;;;;;;;0.97;0.40;;;16.00;99.90;;;;;;5034790;28;20181;-65
2021/08/17 08:13:35;;;;;;;0.60;0.60;;;15.90;99.90;;;;;;5035561;28;20196;-65
2021/08/17 08:16:01;;;;;;;1.07;0.40;;;16.00;99.90;;;;;;5035360;28;20182;-64
2021/08/17 08:18:26;;;;;;;0.70;0.47;;;15.70;99.90;;;;;;5035255;28;20181;-64
2021/08/17 08:20:52;;;;;;;0.40;0.20;;;15.60;99.90;;;;;;5034587;28;20185;-62
2021/08/17 08:23:18;;;;;;;0.60;0.40;;;15.50;99.90;;;;;;5035738;28;20717;-64
2021/08/17 08:25:44;;;;;;;0.30;0.20;;;15.60;99.90;;;;;;5036137;28;20173;-64
2021/08/17 08:28:09;;;;;;;0.50;0.40;;;15.50;99.90;;;;;;5034928;28;20427;-65
2021/08/17 08:30:35;;;;;;;0.40;0.20;;;15.40;99.90;;;;;;5035340;28;20645;-64
2021/08/17 08:33:01;;;;;;;1.85;0.70;;;15.50;99.90;;;;;;5035422;28;20249;-65
2021/08/17 08:35:28;;;;;;;1.30;0.82;;;15.50;99.90;;;;;;5035367;28;20635;-65
2021/08/17 08:37:55;;;;;;;0.60;0.60;;;15.60;99.90;;;;;;5034957;28;20618;-65
2021/08/17 08:40:22;;;;;;;0.40;0.20;;;15.70;99.90;;;;;;5035268;28;20185;-65
2021/08/17 08:42:48;;;;;;;1.85;1.40;;;15.50;99.90;;;;;;5035089;28;20208;-63
2021/08/17 08:45:14;;;;;;;0.60;0.33;;;15.40;99.90;;;;;;5035026;28;20257;-65
2021/08/17 08:47:40;;;;;;;0.47;0.30;;;15.60;99.90;;;;;;5034957;28;20448;-65
2021/08/17 08:50:07;;;;;;;1.77;1.33;;;15.60;99.90;;;;;;5034865;28;20423;-64
2021/08/17 08:52:33;;;;;;;0.60;0.45;;;15.70;99.90;;;;;;5034624;28;20971;-65
2021/08/17 08:55:02;;;;;;;1.00;0.80;;;15.80;99.90;;;;;;5034994;28;20185;-64
2021/08/17 08:57:27;;;;;;;0.40;0.20;;;15.70;99.90;;;;;;5034524;28;20492;-65
2021/08/17 08:59:53;;;;;;;1.70;1.03;;;15.90;99.90;;;;;;5035142;28;20178;-66
2021/08/17 09:02:19;;;;;;;0.90;0.60;;;16.10;99.90;;;;;;5033929;28;20803;-66
2021/08/17 09:04:53;;;;;;;0.80;0.37;;;16.30;99.90;;;;;;5034884;28;20193;-65
2021/08/17 09:07:46;;;;;;;4.77;0.97;;;16.50;99.90;;;;;;5034236;28;20208;-65
2021/08/17 09:10:39;;;;;;;1.30;1.03;;;16.30;99.90;;;;;;5034380;28;20927;-65
2021/08/17 09:13:05;;;;;;;3.42;1.42;;;16.20;99.90;;;;;;5033141;28;20440;-65
2021/08/17 09:15:35;;;;;;;0.50;0.40;;;16.00;99.90;;;;;;5034902;28;20193;-66
2021/08/17 09:18:11;;;;;;;0.55;0.50;;;16.00;99.90;;;;;;5034312;28;20692;-66
2021/08/17 09:20:42;;;;;;;3.90;0.57;;;16.20;99.90;;;;;;5034584;28;20228;-65
2021/08/17 09:23:30;;;;;;;14.75;0.85;;;16.00;99.90;;;;;;5034269;28;20240;-65
2021/08/17 09:26:29;;;;;;;0.40;0.20;;;15.90;99.90;;;;;;5033765;28;20189;-66
2021/08/17 09:28:57;;;;;;;3.85;0.57;;;15.80;99.90;;;;;;5033101;28;20205;-66
2021/08/17 09:31:32;;;;;;;0.68;0.47;;;15.90;99.90;;;;;;5034115;28;20173;-66
2021/08/17 09:33:58;;;;;;;1.52;0.88;;;15.80;99.90;;;;;;5034157;28;20613;-66
2021/08/17 09:36:23;;;;;;;2.53;0.60;;;15.60;99.90;;;;;;5034078;28;20196;-66
2021/08/17 09:38:49;;;;;;;0.30;0.20;;;15.40;99.90;;;;;;5032656;28;20247;-66
2021/08/17 09:41:23;;;;;;;0.50;0.40;;;15.50;99.90;;;;;;5025062;28;20201;-66
2021/08/17 09:44:03;;;;;;;0.40;0.20;;;15.60;99.90;;;;;;5024348;28;20240;-66
2021/08/17 09:46:32;;;;;;;1.08;0.35;;;15.60;99.90;;;;;;5025421;28;20232;-67
2021/08/17 09:49:27;;;;;;;0.73;0.32;;;15.70;99.90;;;;;;5031256;28;20177;-66
2021/08/17 09:51:54;;;;;;;0.40;0.30;;;15.70;99.90;;;;;;5033664;28;20183;-64
2021/08/17 09:54:22;;;;;;;20.77;2.95;;;15.70;99.90;;;;;;5022264;28;20260;-66
2021/08/17 09:57:01;;;;;;;0.40;0.25;;;15.60;99.90;;;;;;5025423;28;20285;-65
2021/08/17 09:59:30;;;;;;;1.70;0.65;;;15.60;99.90;;;;;;5026998;28;20189;-65
2021/08/17 10:01:57;;;;;;;0.40;0.30;;;15.50;99.90;;;;;;5022487;28;20236;-66
2021/08/17 10:04:23;;;;;;;0.40;0.20;;;15.40;99.90;;;;;;5022819;28;20184;-66
2021/08/17 10:06:55;;;;;;;1.67;0.80;;;15.40;99.90;;;;;;5016315;28;20266;-66
2021/08/17 10:09:23;;;;;;;8.73;0.73;;;15.40;99.90;;;;;;5028765;28;20528;-66
2021/08/17 10:11:49;;;;;;;2.15;0.65;;;15.50;99.90;;;;;;5033889;28;20169;-65
2021/08/17 10:14:18;;;;;;;4.87;0.77;;;15.50;99.90;;;;;;5032704;28;20192;-65
2021/08/17 10:16:45;;;;;;;0.40;0.40;;;15.60;99.90;;;;;;5033627;28;20505;-65
2021/08/17 10:19:13;;;;;;;1.60;1.50;;;15.70;99.90;;;;;;5033929;28;20185;-65
2021/08/17 10:21:41;;;;;;;0.80;0.80;;;15.80;99.90;;;;;;5034422;28;20178;-65
2021/08/17 10:24:29;;;;;;;0.40;0.40;;;15.90;99.90;;;;;;5034763;28;20463;-65
2021/08/17 10:27:18;;;;;;;0.40;0.20;;;15.90;99.90;;;;;;5033209;28;20669;-65
2021/08/17 10:30:04;;;;;;;7.03;2.08;;;16.10;99.90;;;;;;5033273;28;20228;-65
2021/08/17 10:32:50;;;;;;;0.40;0.23;;;16.20;99.90;;;;;;5033350;28;20634;-65
2021/08/17 10:35:32;;;;;;;0.40;0.30;;;16.20;99.90;;;;;;5032473;28;20440;-65
2021/08/17 10:38:23;;;;;;;0.60;0.47;;;16.20;99.90;;;;;;5033069;28;20424;-65
2021/08/17 10:40:49;;;;;;;0.40;0.20;;;16.00;99.90;;;;;;5031280;28;20435;-65
2021/08/17 10:43:24;;;;;;;0.50;0.20;;;16.00;99.90;;;;;;5036803;28;20566;-65
2021/08/17 10:45:51;;;;;;;0.40;0.20;;;16.40;99.90;;;;;;5037089;28;20177;-67
2021/08/17 10:48:51;;;;;;;0.87;0.40;;;17.00;99.90;;;;;;5036773;28;20511;-66
2021/08/17 10:51:22;;;;;;;0.40;0.27;;;17.70;99.90;;;;;;5036959;28;20495;-66
2021/08/17 10:53:51;;;;;;;0.50;0.30;;;17.80;99.90;;;;;;5035992;28;20428;-66
2021/08/17 10:56:27;;;;;;;0.40;0.20;;;18.20;99.90;;;;;;5036918;28;20451;-66
2021/08/17 10:58:56;;;;;;;0.50;0.50;;;18.60;99.90;;;;;;5036778;28;20787;-66
2021/08/17 11:01:36;;;;;;;2.63;0.60;;;18.60;99.90;;;;;;5036838;28;20506;-66
2021/08/17 11:04:11;;;;;;;0.40;0.20;;;18.40;99.90;;;;;;5036520;28;20799;-66
2021/08/17 11:06:50;;;;;;;0.60;0.30;;;18.20;99.90;;;;;;5036822;28;20416;-66
2021/08/17 11:09:38;;;;;;;1.17;0.87;;;18.00;99.90;;;;;;5036214;28;20820;-66
2021/08/17 11:12:07;;;;;;;0.50;0.40;;;17.80;99.90;;;;;;5037105;28;20412;-66
2021/08/17 11:14:35;;;;;;;0.40;0.20;;;17.20;99.90;;;;;;5036619;28;20465;-66
2021/08/17 11:17:07;;;;;;;3.80;0.87;;;17.00;99.90;;;;;;5035565;28;20420;-66
2021/08/17 11:19:35;;;;;;;1.00;0.63;;;16.80;99.90;;;;;;5036389;28;20428;-66
2021/08/17 11:22:05;;;;;;;0.93;0.67;;;16.60;99.90;;;;;;5036571;28;20432;-66
2021/08/17 11:25:00;;;;;;;0.50;0.20;;;16.60;99.90;;;;;;5036398;28;20432;-66
2021/08/17 11:27:30;;;;;;;0.40;0.30;;;16.50;99.90;;;;;;5034970;28;20926;-66
2021/08/17 11:30:03;;;;;;;0.40;0.20;;;16.50;99.90;;;;;;5036266;28;20192;-66
2021/08/17 11:32:40;;;;;;;1.13;0.63;;;16.40;99.90;;;;;;5036319;28;20443;-66
2021/08/17 11:35:27;;;;;;;0.50;0.33;;;16.50;99.90;;;;;;5036128;28;20522;-66
2021/08/17 11:37:56;;;;;;;3.55;1.05;;;16.70;99.90;;;;;;5033931;28;20768;-66
2021/08/17 11:40:25;;;;;;;0.40;0.10;;;16.50;99.90;;;;;;5025247;28;20267;-66
2021/08/17 11:42:55;;;;;;;5.67;1.50;;;16.60;99.90;;;;;;5025034;28;20213;-66
2021/08/17 11:45:24;;;;;;;1.10;1.00;;;16.50;99.90;;;;;;5025694;28;20436;-66
2021/08/17 11:47:51;;;;;;;0.97;0.63;;;16.30;99.90;;;;;;5029336;28;20428;-66
2021/08/17 11:50:19;;;;;;;0.40;0.23;;;16.30;99.90;;;;;;5034859;28;20515;-66
2021/08/17 11:52:55;;;;;;;0.40;0.20;;;16.40;99.90;;;;;;5034877;28;20817;-66
2021/08/17 11:55:27;;;;;;;0.40;0.20;;;16.70;99.90;;;;;;5035843;28;20438;-66
2021/08/17 11:57:57;;;;;;;0.40;0.20;;;16.80;99.90;;;;;;5029592;28;20939;-67
2021/08/17 12:00:25;;;;;;;2.30;1.07;;;17.00;99.90;;;;;;5035458;28;20428;-66
2021/08/17 12:02:53;;;;;;;4.73;1.30;;;16.90;99.90;;;;;;5034702;28;20471;-66
2021/08/17 12:05:21;;;;;;;0.50;0.30;;;16.60;99.90;;;;;;5035731;28;20511;-66
2021/08/17 12:07:52;;;;;;;0.40;0.20;;;16.60;99.90;;;;;;5035479;28;20424;-66
2021/08/17 12:10:22;;;;;;;0.40;0.20;;;16.60;99.90;;;;;;5035310;28;20425;-66
2021/08/17 12:12:57;;;;;;;1.05;0.47;;;16.70;99.90;;;;;;5035236;28;20424;-66
2021/08/17 12:15:30;;;;;;;4.80;0.93;;;16.60;99.90;;;;;;5034343;28;20212;-66
2021/08/17 12:18:02;;;;;;;2.90;2.70;;;16.60;99.90;;;;;;5035392;28;20430;-66
2021/08/17 12:20:29;;;;;;;0.60;0.60;;;16.30;99.90;;;;;;5035373;28;20192;-66
2021/08/17 12:22:55;;;;;;;0.80;0.60;;;16.40;99.90;;;;;;5035528;28;20471;-66
2021/08/17 12:25:23;;;;;;;1.73;0.47;;;16.50;99.90;;;;;;5035638;28;20507;-66
2021/08/17 12:27:59;;;;;;;0.40;0.20;;;16.70;99.90;;;;;;5035407;28;20184;-66
2021/08/17 12:30:27;;;;;;;0.40;0.20;;;16.80;99.90;;;;;;5035525;28;20481;-67
2021/08/17 12:32:54;;;;;;;0.60;0.40;;;17.00;99.90;;;;;;5037281;28;20459;-68
2021/08/17 12:35:28;;;;;;;3.90;0.87;;;17.20;99.90;;;;;;5040525;28;20432;-68
2021/08/17 12:37:54;;;;;;;10.37;2.37;;;17.30;99.90;;;;;;5040525;28;20985;-68
2021/08/17 12:40:19;;;;;;;1.73;0.40;;;17.70;99.90;;;;;;5040069;28;20436;-68
2021/08/17 12:42:45;;;;;;;0.40;0.20;;;17.60;55.90;;;;;;5040680;28;20205;-68
2021/08/17 12:45:27;;;;;;;0.40;0.30;;;17.40;94.70;;;;;;5040442;28;20182;-67
2021/08/17 12:47:58;;;;;;;1.03;0.70;;;17.20;99.90;;;;;;5039669;28;20432;-67
2021/08/17 12:50:23;;;;;;;1.23;0.43;;;16.70;99.90;;;;;;5039322;28;20442;-67